Time;durP1;ratioP1;P1;durP2;ratioP2;P2;SDS_P1;SDS_P2;PMS_P1;PMS_P2;Temp;Humidity;BMP_temperature;BMP_pressure;BME280_temperature;BME280_humidity;BME280_pressure;Samples;Min_cycle;Max_cycle;Signal;HPM_P1;HPM_P2
2021/05/28 00:01:34;;;;;;;;;;;;;;;;;;;;;
2021/05/28 00:04:54;;;;;;;8.60;3.30;;;9.10;91.90;;;;;;6224691;23;20076;-87
2021/05/28 00:07:44;;;;;;;;;;;9.00;91.90;;;;;;6214971;23;20012;-87
2021/05/28 00:10:35;;;;;;;4.28;3.03;;;9.00;91.90;;;;;;6220658;23;19974;-86
2021/05/28 00:13:28;;;;;;;5.45;2.67;;;8.90;92.00;;;;;;6245789;23;20031;-86
2021/05/28 00:16:40;;;;;;;5.03;2.92;;;8.90;92.00;;;;;;6212813;23;20018;-86
2021/05/28 00:20:09;;;;;;;3.47;2.75;;;8.90;92.00;;;;;;6220373;23;20330;-86
2021/05/28 00:22:38;;;;;;;4.25;2.88;;;8.80;92.00;;;;;;6241844;23;20342;-86
2021/05/28 00:25:33;;;;;;;;;;;;;;;;;;;;;
2021/05/28 00:31:43;;;;;;;;;;;;;;;;;;;;;
2021/05/28 00:34:17;;;;;;;6.85;3.28;;;8.70;92.00;;;;;;6246555;23;20079;-87
2021/05/28 00:40:33;;;;;;;6.20;3.22;;;8.60;92.00;;;;;;6199648;23;20527;-89
2021/05/28 00:43:30;;;;;;;;;;;;;;;;;;;;;
2021/05/28 00:46:29;;;;;;;;;;;;;;;;;;;;;
2021/05/28 00:50:03;;;;;;;;;;;;;;;;;;;;;
2021/05/28 00:52:41;;;;;;;7.03;3.47;;;8.50;92.10;;;;;;6262187;23;20004;-85
2021/05/28 00:56:09;;;;;;;10.10;3.75;;;8.50;92.10;;;;;;6207863;23;19989;-89
2021/05/28 01:10:16;;;;;;;;;;;;;;;;;;;;;
2021/05/28 01:13:46;;;;;;;;;;;;;;;;;;;;;
2021/05/28 01:17:26;;;;;;;;;;;;;;;;;;;;;
2021/05/28 01:24:11;;;;;;;;;;;;;;;;;;;;;
2021/05/28 01:27:51;;;;;;;;;;;;;;;;;;;;;
2021/05/28 01:31:02;;;;;;;;;;;;;;;;;;;;;
2021/05/28 01:34:21;;;;;;;;;;;;;;;;;;;;;
2021/05/28 02:32:36;;;;;;;18.27;8.27;;;8.70;93.60;;;;;;5720015;24;20020;-87
2021/05/28 02:35:22;;;;;;;11.07;8.30;;;8.70;93.70;;;;;;5718195;25;20356;-88
2021/05/28 02:41:32;;;;;;;13.45;8.82;;;8.70;93.70;;;;;;5980469;23;20117;-88
2021/05/28 02:47:30;;;;;;;13.57;9.00;;;8.60;93.70;;;;;;6094993;23;20042;-87
2021/05/28 02:53:34;;;;;;;;;;;;;;;;;;;;;
2021/05/28 02:56:10;;;;;;;12.77;9.82;;;8.50;94.00;;;;;;6216465;23;20112;-88
2021/05/28 02:59:10;;;;;;;14.50;10.07;;;8.50;94.10;;;;;;6190628;23;20005;-88
2021/05/28 03:04:58;;;;;;;;;;;;;;;;;;;;;
2021/05/28 03:07:53;;;;;;;13.30;9.63;;;8.40;94.10;;;;;;6210915;23;20124;-86
2021/05/28 03:10:54;;;;;;;;;;;;;;;;;;;;;
2021/05/28 03:16:36;;;;;;;12.40;9.88;;;8.60;94.10;;;;;;6189920;23;20044;-87
2021/05/28 03:19:16;;;;;;;13.95;10.07;;;8.60;94.10;;;;;;6213509;23;20462;-86
2021/05/28 03:25:07;;;;;;;15.25;10.50;;;8.70;94.10;;;;;;6225118;23;20379;-86
2021/05/28 03:27:49;;;;;;;13.68;9.70;;;8.70;94.00;;;;;;6215261;23;20001;-86
2021/05/28 03:33:40;;;;;;;;;;;;;;;;;;;;;
2021/05/28 03:36:20;;;;;;;11.10;9.13;;;8.80;94.00;;;;;;6212997;23;20107;-86
2021/05/28 03:39:38;;;;;;;16.02;10.45;;;8.80;93.90;;;;;;6190360;23;20020;-89
2021/05/28 03:42:28;;;;;;;;;;;;;;;;;;;;;
2021/05/28 03:45:01;;;;;;;14.15;11.27;;;8.90;93.90;;;;;;6193549;23;20494;-86
2021/05/28 03:48:19;;;;;;;;;;;;;;;;;;;;;
2021/05/28 03:50:54;;;;;;;18.25;12.88;;;9.00;94.00;;;;;;6192354;23;20084;-88
2021/05/28 03:56:43;;;;;;;18.25;11.93;;;9.00;93.90;;;;;;6192692;23;20015;-87
2021/05/28 03:59:46;;;;;;;15.98;11.90;;;9.00;93.90;;;;;;6193526;23;20053;-87
2021/05/28 04:02:17;;;;;;;17.42;12.55;;;9.10;93.90;;;;;;6213416;23;20009;-87
2021/05/28 04:05:02;;;;;;;;;;;;;;;;;;;;;
2021/05/28 04:07:43;;;;;;;18.95;12.73;;;9.10;93.80;;;;;;6212148;23;20395;-87
2021/05/28 04:10:34;;;;;;;16.25;12.25;;;9.10;93.80;;;;;;6213361;23;20035;-87
2021/05/28 04:14:05;;;;;;;;;;;;;;;;;;;;;
2021/05/28 04:17:11;;;;;;;17.10;11.97;;;9.10;93.80;;;;;;6215533;23;20096;-86
2021/05/28 04:20:23;;;;;;;17.00;12.05;;;9.10;93.80;;;;;;6214808;23;20246;-87
2021/05/28 04:24:00;;;;;;;;;;;;;;;;;;;;;
2021/05/28 04:26:24;;;;;;;16.50;11.98;;;9.10;93.90;;;;;;6205201;23;20020;-86
2021/05/28 04:29:00;;;;;;;18.42;11.80;;;9.20;93.90;;;;;;6189422;23;20005;-88
2021/05/28 04:31:58;;;;;;;18.08;11.68;;;9.20;93.90;;;;;;6165804;23;20465;-87
2021/05/28 04:34:46;;;;;;;15.75;11.90;;;9.20;93.90;;;;;;6190832;23;20009;-88
2021/05/28 04:37:29;;;;;;;;;;;;;;;;;;;;;
2021/05/28 04:39:58;;;;;;;14.23;10.85;;;9.30;93.90;;;;;;6214567;23;20079;-86
2021/05/28 04:42:35;;;;;;;15.95;11.40;;;9.30;93.90;;;;;;6212779;23;20017;-87
2021/05/28 04:45:28;;;;;;;17.02;11.05;;;9.30;93.90;;;;;;6214321;23;19996;-86
2021/05/28 04:48:12;;;;;;;16.55;11.30;;;9.30;93.90;;;;;;6211480;23;20580;-87
2021/05/28 04:51:08;;;;;;;16.38;11.77;;;9.20;93.90;;;;;;6190098;23;20111;-87
2021/05/28 04:53:46;;;;;;;15.68;11.15;;;9.20;93.90;;;;;;6214715;23;20036;-87
2021/05/28 04:56:47;;;;;;;20.27;11.63;;;9.20;93.90;;;;;;6166543;23;20781;-87
2021/05/28 04:59:34;;;;;;;;;;;;;;;;;;;;;
2021/05/28 05:02:16;;;;;;;13.13;10.60;;;9.30;93.90;;;;;;6214640;23;20273;-87
2021/05/28 05:08:28;;;;;;;;;;;;;;;;;;;;;
2021/05/28 05:15:02;;;;;;;15.90;10.15;;;9.20;94.00;;;;;;6198707;23;20001;-87
2021/05/28 05:20:36;;;;;;;;;;;;;;;;;;;;;
2021/05/28 05:23:08;;;;;;;13.98;10.00;;;9.20;93.90;;;;;;6213290;23;20075;-87
2021/05/28 05:25:57;;;;;;;13.85;9.43;;;9.20;93.90;;;;;;6213440;23;20008;-88
2021/05/28 05:28:52;;;;;;;;;;;;;;;;;;;;;
2021/05/28 05:31:29;;;;;;;14.35;9.68;;;9.30;93.90;;;;;;6213101;23;20083;-90
2021/05/28 05:34:31;;;;;;;;;;;;;;;;;;;;;
2021/05/28 05:37:00;;;;;;;;;;;9.20;93.80;;;;;;6214910;23;20131;-89
2021/05/28 05:42:49;;;;;;;11.27;8.33;;;9.30;93.90;;;;;;6205495;23;20040;-89
2021/05/28 05:46:05;;;;;;;;;;;;;;;;;;;;;
2021/05/28 05:48:44;;;;;;;14.35;9.90;;;9.30;93.80;;;;;;6208130;23;20060;-89
2021/05/28 05:51:42;;;;;;;;;;;;;;;;;;;;;
2021/05/28 05:54:46;;;;;;;;;;;;;;;;;;;;;
2021/05/28 05:57:19;;;;;;;13.52;10.10;;;9.30;93.80;;;;;;6147080;23;20088;-89
2021/05/28 06:00:06;;;;;;;13.63;11.65;;;9.30;93.80;;;;;;6165246;23;20017;-88
2021/05/28 06:02:46;;;;;;;13.05;10.40;;;9.40;93.70;;;;;;6189110;23;20469;-88
2021/05/28 06:05:41;;;;;;;14.32;10.65;;;9.30;93.60;;;;;;6166939;23;20001;-87
2021/05/28 06:14:45;;;;;;;13.25;9.70;;;9.40;93.70;;;;;;6213819;23;20011;-88
2021/05/28 06:17:30;;;;;;;;;;;;;;;;;;;;;
2021/05/28 06:20:43;;;;;;;13.02;10.45;;;9.50;93.70;;;;;;6191469;23;20080;-88
2021/05/28 06:23:37;;;;;;;14.13;10.93;;;9.50;93.70;;;;;;6209353;23;20000;-87
2021/05/28 06:26:35;;;;;;;14.50;11.20;;;9.60;93.70;;;;;;6187826;23;20012;-88
2021/05/28 06:32:29;;;;;;;;;;;;;;;;;;;;;
2021/05/28 06:38:25;;;;;;;15.13;11.57;;;9.90;93.60;;;;;;6139229;23;20009;-89
2021/05/28 06:41:43;;;;;;;;;;;;;;;;;;;;;
2021/05/28 06:44:55;;;;;;;14.02;11.23;;;10.00;93.50;;;;;;6227714;23;20505;-89
2021/05/28 06:47:34;;;;;;;13.52;10.43;;;10.10;93.50;;;;;;6221059;23;20463;-88
2021/05/28 06:50:08;;;;;;;14.32;10.63;;;10.20;93.50;;;;;;6198337;23;20014;-87
2021/05/28 07:00:07;;;;;;;;;;;;;;;;;;;;;
2021/05/28 07:17:16;;;;;;;;;;;;;;;;;;;;;
2021/05/28 07:23:29;;;;;;;;;;;;;;;;;;;;;
2021/05/28 07:29:54;;;;;;;11.93;9.38;;;11.00;92.40;;;;;;6080175;23;20476;-90
2021/05/28 07:33:04;;;;;;;;;;;;;;;;;;;;;
2021/05/28 07:36:27;;;;;;;;;;;;;;;;;;;;;
2021/05/28 07:39:13;;;;;;;;;;;;;;;;;;;;;
2021/05/28 07:42:25;;;;;;;14.18;11.73;;;11.20;92.10;;;;;;6221694;23;20103;-90
2021/05/28 07:45:41;;;;;;;;;;;;;;;;;;;;;
2021/05/28 07:49:10;;;;;;;11.85;9.70;;;11.20;91.90;;;;;;6245717;23;20120;-89
2021/05/28 07:52:34;;;;;;;;;;;;;;;;;;;;;
2021/05/28 07:59:56;;;;;;;;;;;;;;;;;;;;;
2021/05/28 08:10:05;;;;;;;;;;;;;;;;;;;;;
2021/05/28 08:16:18;;;;;;;;;;;;;;;;;;;;;
2021/05/28 08:18:55;;;;;;;11.32;9.85;;;11.90;92.00;;;;;;6224483;23;20069;-89
2021/05/28 08:21:43;;;;;;;;;;;;;;;;;;;;;
2021/05/28 08:24:24;;;;;;;12.90;10.68;;;12.00;91.90;;;;;;6238991;23;20083;-90
2021/05/28 08:27:16;;;;;;;13.00;10.23;;;12.00;91.90;;;;;;6194401;23;20012;-90
2021/05/28 08:30:36;;;;;;;;;;;;;;;;;;;;;
2021/05/28 08:37:04;;;;;;;11.43;9.43;;;12.30;91.70;;;;;;6223712;23;20445;-90
2021/05/28 08:40:01;;;;;;;12.18;9.68;;;12.40;91.50;;;;;;6199184;23;20039;-89
2021/05/28 08:43:00;;;;;;;;;;;;;;;;;;;;;
2021/05/28 08:49:09;;;;;;;;;;;;;;;;;;;;;
2021/05/28 08:51:45;;;;;;;;;;;;;;;;;;;;;
2021/05/28 08:54:28;;;;;;;10.10;8.27;;;12.90;91.20;;;;;;6245395;23;20079;-91
2021/05/28 08:57:29;;;;;;;8.70;7.57;;;13.00;91.20;;;;;;6194644;23;20008;-91
2021/05/28 09:00:39;;;;;;;;;;;;;;;;;;;;;
2021/05/28 09:03:35;;;;;;;8.13;6.85;;;13.10;91.10;;;;;;6194451;23;20004;-90
2021/05/28 09:13:01;;;;;;;;;;;;;;;;;;;;;
2021/05/28 09:20:04;;;;;;;;;;;;;;;;;;;;;
2021/05/28 09:23:17;;;;;;;;;;;;;;;;;;;;;
2021/05/28 09:37:32;;;;;;;9.35;6.88;;;13.80;88.00;;;;;;6108575;23;20021;-90
2021/05/28 09:41:09;;;;;;;;;;;;;;;;;;;;;
2021/05/28 09:43:59;;;;;;;;;;;;;;;;;;;;;
2021/05/28 09:49:54;;;;;;;;;;;;;;;;;;;;;
2021/05/28 09:52:49;;;;;;;7.00;5.68;;;14.10;87.80;;;;;;6245049;23;20084;-92
2021/05/28 09:59:35;;;;;;;;;;;;;;;;;;;;;
2021/05/28 10:02:58;;;;;;;;;;;;;;;;;;;;;
2021/05/28 10:05:37;;;;;;;6.22;4.78;;;14.30;85.90;;;;;;6244617;23;20079;-90
2021/05/28 10:11:57;;;;;;;;;;;;;;;;;;;;;
2021/05/28 10:15:17;;;;;;;;;;;;;;;;;;;;;
2021/05/28 10:39:10;;;;;;;;;;;;;;;;;;;;;
2021/05/28 10:42:22;;;;;;;4.90;3.88;;;15.10;84.80;;;;;;5899164;23;20112;-87
2021/05/28 10:49:58;;;;;;;;;;;;;;;;;;;;;
2021/05/28 11:00:24;;;;;;;2.63;2.35;;;15.20;79.30;;;;;;5613423;25;20014;-90
2021/05/28 11:02:59;;;;;;;1.83;1.70;;;15.30;79.00;;;;;;5820999;24;20447;-80
2021/05/28 11:05:57;;;;;;;;;;;;;;;;;;;;;
2021/05/28 11:08:44;;;;;;;3.40;1.77;;;15.40;79.80;;;;;;6243776;23;20082;-81
2021/05/28 11:11:43;;;;;;;3.40;1.50;;;15.40;80.00;;;;;;6245185;23;20006;-80
2021/05/28 11:14:16;;;;;;;2.83;1.65;;;15.50;80.20;;;;;;6215739;23;20004;-81
2021/05/28 11:17:22;;;;;;;1.60;1.50;;;15.40;80.50;;;;;;6245040;23;20004;-81
2021/05/28 11:20:03;;;;;;;;;;;;;;;;;;;;;
2021/05/28 11:22:38;;;;;;;1.92;1.45;;;15.60;79.90;;;;;;6243908;23;20103;-81
2021/05/28 11:25:22;;;;;;;1.58;1.42;;;15.60;78.40;;;;;;6217890;23;20329;-81
2021/05/28 11:27:57;;;;;;;2.42;1.70;;;15.70;78.30;;;;;;6219030;23;20015;-81
2021/05/28 11:30:28;;;;;;;2.53;1.90;;;15.70;77.90;;;;;;6212784;23;20004;-82
2021/05/28 11:32:54;;;;;;;;;;;15.80;77.40;;;;;;6210625;23;20004;-81
2021/05/28 11:35:21;;;;;;;3.53;2.35;;;15.80;73.50;;;;;;6216619;23;19954;-81
2021/05/28 11:37:56;;;;;;;3.65;2.42;;;15.90;73.70;;;;;;6216659;23;20477;-81
2021/05/28 11:40:33;;;;;;;2.92;2.13;;;15.90;73.20;;;;;;6217320;23;20004;-81
2021/05/28 11:43:11;;;;;;;2.88;2.25;;;16.00;73.70;;;;;;6244105;23;20012;-81
2021/05/28 11:45:41;;;;;;;2.72;2.20;;;16.00;73.80;;;;;;6242947;23;20030;-81
2021/05/28 11:48:12;;;;;;;2.70;2.30;;;16.00;73.80;;;;;;6218206;23;20417;-81
2021/05/28 11:50:42;;;;;;;2.60;2.05;;;16.10;74.60;;;;;;6216160;23;20008;-81
2021/05/28 11:53:12;;;;;;;2.75;1.60;;;16.10;72.40;;;;;;6215741;23;20050;-80
2021/05/28 11:55:48;;;;;;;2.65;2.20;;;16.20;72.00;;;;;;6215496;23;20026;-81
2021/05/28 11:58:16;;;;;;;2.67;1.80;;;16.20;72.30;;;;;;6191102;23;20015;-81
2021/05/28 12:00:42;;;;;;;3.20;1.85;;;16.20;73.20;;;;;;6242911;23;20099;-81
2021/05/28 12:03:10;;;;;;;2.17;1.70;;;16.20;73.30;;;;;;6217641;23;20004;-81
2021/05/28 12:05:41;;;;;;;2.45;1.80;;;16.30;73.50;;;;;;6217040;23;20135;-82
2021/05/28 12:08:31;;;;;;;2.03;1.83;;;16.30;72.50;;;;;;6217478;23;20414;-82
2021/05/28 12:11:03;;;;;;;1.93;1.67;;;16.30;71.70;;;;;;6193149;23;20012;-81
2021/05/28 12:13:31;;;;;;;2.42;1.40;;;16.30;69.40;;;;;;6216528;23;20239;-81
2021/05/28 12:16:01;;;;;;;2.35;1.70;;;16.40;70.50;;;;;;6243420;23;20015;-80
2021/05/28 12:18:46;;;;;;;1.30;1.20;;;16.40;69.60;;;;;;6243052;23;20003;-81
2021/05/28 12:21:22;;;;;;;1.63;1.52;;;16.40;69.50;;;;;;6239664;23;20007;-84
2021/05/28 12:23:57;;;;;;;1.83;1.33;;;16.50;70.70;;;;;;6205590;23;20008;-81
2021/05/28 12:26:25;;;;;;;4.82;1.95;;;16.50;70.90;;;;;;6215567;23;20012;-81
2021/05/28 12:28:59;;;;;;;2.05;1.40;;;16.60;66.20;;;;;;6215360;23;20035;-88
2021/05/28 12:31:34;;;;;;;2.20;1.48;;;16.70;66.20;;;;;;6241552;23;20057;-82
2021/05/28 12:34:11;;;;;;;3.70;1.90;;;16.60;67.80;;;;;;6215516;23;20027;-81
2021/05/28 12:36:44;;;;;;;3.13;1.80;;;16.60;62.10;;;;;;6216349;23;20311;-82
2021/05/28 12:39:29;;;;;;;2.75;1.58;;;16.60;64.20;;;;;;6216800;23;20148;-81
2021/05/28 12:41:55;;;;;;;2.10;1.40;;;16.60;66.10;;;;;;6193082;23;20001;-81
2021/05/28 12:44:26;;;;;;;2.05;1.58;;;16.70;64.50;;;;;;6241997;23;20020;-81
2021/05/28 12:46:59;;;;;;;2.47;1.60;;;16.70;63.50;;;;;;6215014;23;20016;-82
2021/05/28 12:49:45;;;;;;;2.65;1.52;;;16.80;62.40;;;;;;6243427;23;20087;-83
2021/05/28 12:52:17;;;;;;;1.42;1.10;;;16.80;65.00;;;;;;6216131;23;20000;-83
2021/05/28 12:54:57;;;;;;;2.00;1.70;;;16.90;65.00;;;;;;6215412;23;20038;-82
2021/05/28 12:57:22;;;;;;;2.13;1.92;;;16.90;63.50;;;;;;6216891;23;20333;-79
2021/05/28 12:59:48;;;;;;;1.83;1.45;;;17.00;60.00;;;;;;6242905;23;20004;-79
2021/05/28 13:02:18;;;;;;;1.88;1.50;;;17.10;61.50;;;;;;6216143;23;20001;-79
2021/05/28 13:04:53;;;;;;;2.03;1.40;;;17.10;63.80;;;;;;6216593;23;20031;-79
2021/05/28 13:07:41;;;;;;;1.73;1.23;;;17.00;65.40;;;;;;6243335;23;20008;-78
2021/05/28 13:10:22;;;;;;;2.28;1.23;;;17.00;65.10;;;;;;6243662;23;20074;-79
2021/05/28 13:12:48;;;;;;;;;;;17.00;64.70;;;;;;6243332;23;20153;-79
2021/05/28 13:15:23;;;;;;;3.03;1.13;;;17.00;65.60;;;;;;6215492;23;20309;-78
2021/05/28 13:17:56;;;;;;;0.90;0.90;;;17.00;65.10;;;;;;6217209;23;20038;-78
2021/05/28 13:20:25;;;;;;;1.10;1.00;;;17.00;65.40;;;;;;6216512;23;20004;-79
2021/05/28 13:22:56;;;;;;;0.90;0.80;;;17.00;65.30;;;;;;6217001;23;19996;-78
2021/05/28 13:25:31;;;;;;;1.13;0.98;;;17.10;63.80;;;;;;6217565;23;20083;-79
2021/05/28 13:28:14;;;;;;;1.08;0.88;;;17.10;63.40;;;;;;6217474;23;20418;-78
2021/05/28 13:30:51;;;;;;;1.35;1.10;;;17.20;64.30;;;;;;6216889;23;20023;-79
2021/05/28 13:33:23;;;;;;;1.60;1.10;;;17.20;64.20;;;;;;6217745;23;20070;-80
2021/05/28 13:35:57;;;;;;;1.20;1.10;;;17.20;62.70;;;;;;6217094;23;20142;-79
2021/05/28 13:38:23;;;;;;;1.85;1.20;;;17.30;60.10;;;;;;6194082;23;20010;-80
2021/05/28 13:40:50;;;;;;;0.93;0.80;;;17.30;61.30;;;;;;6217748;23;20015;-80
2021/05/28 13:43:20;;;;;;;1.38;1.08;;;17.40;62.60;;;;;;6245396;23;20091;-80
2021/05/28 13:45:51;;;;;;;1.63;1.10;;;17.30;63.60;;;;;;6245743;23;20015;-80
2021/05/28 13:48:17;;;;;;;2.17;1.40;;;17.40;62.50;;;;;;6219797;23;20024;-80
2021/05/28 13:50:43;;;;;;;1.70;1.30;;;17.40;62.50;;;;;;6218628;23;20007;-83
2021/05/28 13:53:11;;;;;;;1.75;1.08;;;17.50;62.50;;;;;;6219070;23;20004;-83
2021/05/28 13:55:40;;;;;;;1.48;1.23;;;17.60;63.10;;;;;;6194491;23;20493;-82
2021/05/28 13:58:07;;;;;;;0.90;0.90;;;17.60;63.90;;;;;;6219580;23;20095;-83
2021/05/28 14:00:34;;;;;;;1.20;0.90;;;17.60;64.20;;;;;;6245925;23;20008;-82
2021/05/28 14:03:00;;;;;;;1.67;1.20;;;17.70;64.30;;;;;;6219543;23;20003;-83
2021/05/28 14:05:29;;;;;;;0.93;0.93;;;17.70;64.10;;;;;;6245713;23;20075;-82
2021/05/28 14:07:57;;;;;;;1.20;1.10;;;17.70;63.90;;;;;;6218523;23;20012;-82
2021/05/28 14:10:26;;;;;;;4.18;1.33;;;17.80;63.70;;;;;;6219706;23;20004;-83
2021/05/28 14:13:01;;;;;;;1.08;0.98;;;17.80;62.70;;;;;;6245387;23;20004;-83
2021/05/28 14:15:27;;;;;;;2.25;1.08;;;17.80;61.20;;;;;;6219365;23;19996;-82
2021/05/28 14:17:53;;;;;;;1.30;1.15;;;17.70;62.70;;;;;;6218973;23;20007;-81
2021/05/28 14:20:23;;;;;;;1.35;1.13;;;17.70;62.90;;;;;;6246107;23;20417;-82
2021/05/28 14:22:59;;;;;;;1.33;1.10;;;17.80;62.70;;;;;;6218460;23;20004;-82
2021/05/28 14:25:26;;;;;;;1.65;1.10;;;17.70;61.20;;;;;;6246215;23;20430;-81
2021/05/28 14:27:57;;;;;;;2.22;1.20;;;17.80;60.30;;;;;;6218545;23;20389;-82
2021/05/28 14:30:27;;;;;;;1.13;1.00;;;17.90;59.20;;;;;;6245385;23;20046;-82
2021/05/28 14:32:53;;;;;;;3.83;1.30;;;17.90;59.60;;;;;;6218900;23;20004;-82
2021/05/28 14:35:22;;;;;;;1.10;0.85;;;17.90;60.30;;;;;;6218844;23;20091;-81
2021/05/28 14:37:51;;;;;;;1.55;1.25;;;18.00;60.80;;;;;;6218715;23;20461;-82
2021/05/28 14:40:21;;;;;;;1.75;1.17;;;18.00;61.20;;;;;;6218970;23;20403;-82
2021/05/28 14:42:49;;;;;;;2.05;1.10;;;17.90;61.60;;;;;;6218170;23;20093;-82
2021/05/28 14:45:15;;;;;;;1.00;0.90;;;18.00;62.10;;;;;;6218598;23;20008;-82
2021/05/28 14:47:42;;;;;;;3.33;1.15;;;17.90;62.60;;;;;;6219227;23;20437;-81
2021/05/28 14:50:10;;;;;;;1.45;1.00;;;18.00;63.20;;;;;;6219175;23;20007;-82
2021/05/28 14:52:36;;;;;;;1.70;1.00;;;18.00;60.30;;;;;;6194026;23;20030;-81
2021/05/28 14:55:03;;;;;;;2.83;1.13;;;18.00;60.70;;;;;;6219020;23;20000;-82
2021/05/28 14:57:29;;;;;;;1.02;0.93;;;18.10;60.90;;;;;;6245486;23;20011;-81
2021/05/28 14:59:58;;;;;;;1.45;0.88;;;18.10;60.80;;;;;;6193621;23;20000;-82
2021/05/28 15:02:24;;;;;;;1.92;1.05;;;18.10;60.30;;;;;;6245017;23;20053;-82
2021/05/28 15:04:50;;;;;;;1.10;1.00;;;18.10;60.70;;;;;;6218638;23;20054;-82
2021/05/28 15:07:16;;;;;;;2.17;1.30;;;18.10;60.90;;;;;;6245672;23;20011;-81
2021/05/28 15:09:42;;;;;;;1.48;1.30;;;18.10;61.10;;;;;;6218390;23;20004;-83
2021/05/28 15:12:08;;;;;;;1.27;0.88;;;18.10;61.00;;;;;;6218931;23;20047;-82
2021/05/28 15:14:47;;;;;;;1.52;1.15;;;18.10;61.30;;;;;;6219012;23;20000;-90
2021/05/28 15:17:13;;;;;;;1.30;1.20;;;18.20;62.00;;;;;;6218596;23;20326;-81
2021/05/28 15:19:44;;;;;;;1.40;1.30;;;18.20;62.30;;;;;;6218772;23;20069;-84
2021/05/28 15:22:12;;;;;;;1.80;1.00;;;18.20;62.30;;;;;;6193039;23;20008;-82
2021/05/28 15:24:38;;;;;;;1.60;1.15;;;18.30;62.50;;;;;;6218054;23;20004;-84
2021/05/28 15:27:07;;;;;;;2.00;1.30;;;18.30;63.00;;;;;;6245713;23;20000;-82
2021/05/28 15:29:33;;;;;;;1.45;1.35;;;18.20;62.80;;;;;;6218453;23;20024;-82
2021/05/28 15:31:59;;;;;;;1.55;1.45;;;18.30;62.90;;;;;;6193243;23;20095;-82
2021/05/28 15:34:25;;;;;;;1.92;1.60;;;18.30;63.00;;;;;;6245608;23;20024;-82
2021/05/28 15:36:51;;;;;;;2.05;1.60;;;18.30;62.90;;;;;;6219353;23;20062;-83
2021/05/28 15:39:19;;;;;;;1.95;1.33;;;18.40;62.20;;;;;;6244787;23;20422;-83
2021/05/28 15:41:47;;;;;;;2.55;1.45;;;18.40;62.30;;;;;;6219248;23;20004;-83
2021/05/28 15:44:13;;;;;;;1.92;1.60;;;18.50;61.90;;;;;;6193115;23;20024;-83
2021/05/28 15:46:45;;;;;;;2.15;1.48;;;18.40;61.90;;;;;;6218398;23;20090;-84
2021/05/28 15:49:11;;;;;;;2.50;1.58;;;18.50;62.70;;;;;;6244117;23;20050;-84
2021/05/28 15:51:39;;;;;;;2.30;1.70;;;18.50;61.70;;;;;;6217315;23;20353;-83
2021/05/28 15:54:07;;;;;;;1.50;1.30;;;18.60;61.00;;;;;;6217130;23;20417;-82
2021/05/28 15:56:36;;;;;;;1.73;1.38;;;18.50;61.30;;;;;;6217749;23;20088;-83
2021/05/28 15:59:04;;;;;;;1.65;1.30;;;18.50;61.80;;;;;;6217622;23;20501;-83
2021/05/28 16:01:30;;;;;;;2.55;1.25;;;18.50;62.10;;;;;;6216635;23;20020;-82
2021/05/28 16:03:59;;;;;;;2.55;1.80;;;18.60;62.40;;;;;;6215131;23;20433;-83
2021/05/28 16:06:25;;;;;;;2.78;1.80;;;18.60;62.40;;;;;;6190027;23;20012;-83
2021/05/28 16:08:51;;;;;;;1.95;1.73;;;18.60;62.10;;;;;;6244530;23;20004;-81
2021/05/28 16:11:17;;;;;;;3.13;1.63;;;18.60;62.10;;;;;;6218306;23;20000;-82
2021/05/28 16:13:45;;;;;;;1.92;1.55;;;18.60;62.30;;;;;;6217313;23;20001;-84
2021/05/28 16:16:17;;;;;;;1.75;1.65;;;18.70;61.90;;;;;;6217770;23;20016;-83
2021/05/28 16:18:48;;;;;;;2.78;1.55;;;18.70;61.90;;;;;;6244486;23;20003;-84
2021/05/28 16:21:14;;;;;;;2.42;1.85;;;18.70;62.10;;;;;;6217959;23;20004;-84
2021/05/28 16:23:40;;;;;;;2.05;1.60;;;18.70;62.10;;;;;;6218425;23;20107;-83
2021/05/28 16:26:05;;;;;;;1.95;1.75;;;18.70;59.80;;;;;;6216923;23;20008;-82
2021/05/28 16:28:47;;;;;;;2.90;2.00;;;18.80;60.10;;;;;;6217401;23;20001;-83
2021/05/28 20:04:57;;;;;;;;;;;;;;;;;;;;;
2021/05/28 20:25:59;;;;;;;;;;;;;;;;;;;;;
2021/05/28 20:47:28;;;;;;;;;;;;;;;;;;;;;
